Terminal Aerodrome Forecast
Issued by NWS

Home | Current Version | Previous Version | Graphics & Text | Print | Product List | Glossary On
Versions: 1 2 3 4 5 6 7 8 9 10 11 12 13 14 15 16 17 18 19
246
FTUS43 KICT 270952 AAA
TAFHUT
TAF AMD
KHUT 270952Z 2710/2806 08004KT P6SM FEW050 SCT250
      TEMPO 2710/2713 3SM BR SCT009
     FM271600 16007KT P6SM SCT025
     FM271800 15007KT P6SM SCT040=

USA.gov is the U.S. government's official web portal to all federal, state and local government web resources and services.